<?xml version="1.0" encoding="UTF-8" standalone="no" ?>
<gpx xmlns="http://www.topografix.com/GPX/1/1" xmlns:xsi="http://www.w3.org/2001/XMLSchema-instance" xsi:schemaLocation="http://www.topografix.com/GPX/1/1 http://www.topografix.com/GPX/1/1/gpx.xsd" version="1.1" creator="VisuGPX - https://www.visugpx.com">
  <metadata>
    <name>13881415-Bogy-Peyraud G2 V2-PAT</name>
  </metadata>
  <trk>
    <name><![CDATA[13881415-Bogy-Peyraud G2 V2-PAT]]></name>
    <trkseg>
      <trkpt lat="45.30201" lon="4.78797">
        <ele>137</ele>
        <time>2021-10-28T16:41:37Z</time>
      </trkpt>
      <trkpt lat="45.30194" lon="4.78767">
        <ele>137</ele>
        <time>2021-10-28T16:42:07Z</time>
      </trkpt>
      <trkpt lat="45.30187" lon="4.78717">
        <ele>138</ele>
        <time>2021-10-28T16:42:55Z</time>
      </trkpt>
      <trkpt lat="45.30182" lon="4.78586">
        <ele>158</ele>
        <time>2021-10-28T16:44:58Z</time>
      </trkpt>
      <trkpt lat="45.30187" lon="4.78573">
        <ele>162</ele>
        <time>2021-10-28T16:45:12Z</time>
      </trkpt>
      <trkpt lat="45.30186" lon="4.78558">
        <ele>167</ele>
        <time>2021-10-28T16:45:26Z</time>
      </trkpt>
      <trkpt lat="45.30179" lon="4.7855">
        <ele>170</ele>
        <time>2021-10-28T16:45:38Z</time>
      </trkpt>
      <trkpt lat="45.30178" lon="4.78544">
        <ele>172</ele>
        <time>2021-10-28T16:45:43Z</time>
      </trkpt>
      <trkpt lat="45.30184" lon="4.78538">
        <ele>174</ele>
        <time>2021-10-28T16:45:53Z</time>
      </trkpt>
      <trkpt lat="45.30195" lon="4.78533">
        <ele>176</ele>
        <time>2021-10-28T16:46:09Z</time>
      </trkpt>
      <trkpt lat="45.30186" lon="4.78512">
        <ele>183</ele>
        <time>2021-10-28T16:46:32Z</time>
      </trkpt>
      <trkpt lat="45.30212" lon="4.78511">
        <ele>185</ele>
        <time>2021-10-28T16:47:06Z</time>
      </trkpt>
      <trkpt lat="45.30235" lon="4.78503">
        <ele>189</ele>
        <time>2021-10-28T16:47:38Z</time>
      </trkpt>
      <trkpt lat="45.30258" lon="4.78486">
        <ele>197</ele>
        <time>2021-10-28T16:48:13Z</time>
      </trkpt>
      <trkpt lat="45.30279" lon="4.78464">
        <ele>205</ele>
        <time>2021-10-28T16:48:47Z</time>
      </trkpt>
      <trkpt lat="45.30304" lon="4.78427">
        <ele>216</ele>
        <time>2021-10-28T16:49:36Z</time>
      </trkpt>
      <trkpt lat="45.30324" lon="4.78415">
        <ele>218</ele>
        <time>2021-10-28T16:50:05Z</time>
      </trkpt>
      <trkpt lat="45.30341" lon="4.78415">
        <ele>214</ele>
        <time>2021-10-28T16:50:27Z</time>
      </trkpt>
      <trkpt lat="45.30343" lon="4.78407">
        <ele>216</ele>
        <time>2021-10-28T16:50:35Z</time>
      </trkpt>
      <trkpt lat="45.30313" lon="4.78373">
        <ele>230</ele>
        <time>2021-10-28T16:51:26Z</time>
      </trkpt>
      <trkpt lat="45.30274" lon="4.78351">
        <ele>243</ele>
        <time>2021-10-28T16:52:22Z</time>
      </trkpt>
      <trkpt lat="45.30276" lon="4.78339">
        <ele>246</ele>
        <time>2021-10-28T16:52:34Z</time>
      </trkpt>
      <trkpt lat="45.30254" lon="4.7834">
        <ele>251</ele>
        <time>2021-10-28T16:53:03Z</time>
      </trkpt>
      <trkpt lat="45.30259" lon="4.78326">
        <ele>254</ele>
        <time>2021-10-28T16:53:18Z</time>
      </trkpt>
      <trkpt lat="45.30249" lon="4.78326">
        <ele>256</ele>
        <time>2021-10-28T16:53:31Z</time>
      </trkpt>
      <trkpt lat="45.30253" lon="4.78315">
        <ele>259</ele>
        <time>2021-10-28T16:53:43Z</time>
      </trkpt>
      <trkpt lat="45.3024" lon="4.7832">
        <ele>258</ele>
        <time>2021-10-28T16:54:01Z</time>
      </trkpt>
      <trkpt lat="45.30236" lon="4.78315">
        <ele>259</ele>
        <time>2021-10-28T16:54:08Z</time>
      </trkpt>
      <trkpt lat="45.30253" lon="4.78297">
        <ele>264</ele>
        <time>2021-10-28T16:54:36Z</time>
      </trkpt>
      <trkpt lat="45.30233" lon="4.78292">
        <ele>267</ele>
        <time>2021-10-28T16:55:04Z</time>
      </trkpt>
      <trkpt lat="45.30246" lon="4.78285">
        <ele>269</ele>
        <time>2021-10-28T16:55:22Z</time>
      </trkpt>
      <trkpt lat="45.30241" lon="4.78276">
        <ele>272</ele>
        <time>2021-10-28T16:55:33Z</time>
      </trkpt>
      <trkpt lat="45.30224" lon="4.78274">
        <ele>273</ele>
        <time>2021-10-28T16:55:56Z</time>
      </trkpt>
      <trkpt lat="45.30215" lon="4.78258">
        <ele>278</ele>
        <time>2021-10-28T16:56:15Z</time>
      </trkpt>
      <trkpt lat="45.30205" lon="4.78224">
        <ele>287</ele>
        <time>2021-10-28T16:56:49Z</time>
      </trkpt>
      <trkpt lat="45.30187" lon="4.78208">
        <ele>292</ele>
        <time>2021-10-28T16:57:18Z</time>
      </trkpt>
      <trkpt lat="45.30153" lon="4.78134">
        <ele>309</ele>
        <time>2021-10-28T16:58:41Z</time>
      </trkpt>
      <trkpt lat="45.30172" lon="4.78126">
        <ele>310</ele>
        <time>2021-10-28T16:59:07Z</time>
      </trkpt>
      <trkpt lat="45.30171" lon="4.78116">
        <ele>312</ele>
        <time>2021-10-28T16:59:17Z</time>
      </trkpt>
      <trkpt lat="45.30176" lon="4.78095">
        <ele>315</ele>
        <time>2021-10-28T16:59:37Z</time>
      </trkpt>
      <trkpt lat="45.30173" lon="4.78087">
        <ele>316</ele>
        <time>2021-10-28T16:59:46Z</time>
      </trkpt>
      <trkpt lat="45.30158" lon="4.7807">
        <ele>321</ele>
        <time>2021-10-28T17:00:12Z</time>
      </trkpt>
      <trkpt lat="45.30112" lon="4.78033">
        <ele>331</ele>
        <time>2021-10-28T17:01:22Z</time>
      </trkpt>
      <trkpt lat="45.30094" lon="4.78015">
        <ele>335</ele>
        <time>2021-10-28T17:01:51Z</time>
      </trkpt>
      <trkpt lat="45.30057" lon="4.77989">
        <ele>339</ele>
        <time>2021-10-28T17:02:47Z</time>
      </trkpt>
      <trkpt lat="45.30045" lon="4.77983">
        <ele>340</ele>
        <time>2021-10-28T17:03:04Z</time>
      </trkpt>
      <trkpt lat="45.30024" lon="4.77919">
        <ele>342</ele>
        <time>2021-10-28T17:04:10Z</time>
      </trkpt>
      <trkpt lat="45.30014" lon="4.7788">
        <ele>341</ele>
        <time>2021-10-28T17:04:49Z</time>
      </trkpt>
      <trkpt lat="45.30007" lon="4.77847">
        <ele>341</ele>
        <time>2021-10-28T17:05:21Z</time>
      </trkpt>
      <trkpt lat="45.30005" lon="4.77825">
        <ele>341</ele>
        <time>2021-10-28T17:05:42Z</time>
      </trkpt>
      <trkpt lat="45.30007" lon="4.77773">
        <ele>341</ele>
        <time>2021-10-28T17:06:31Z</time>
      </trkpt>
      <trkpt lat="45.30003" lon="4.77719">
        <ele>340</ele>
        <time>2021-10-28T17:07:22Z</time>
      </trkpt>
      <trkpt lat="45.29998" lon="4.77687">
        <ele>339</ele>
        <time>2021-10-28T17:07:53Z</time>
      </trkpt>
      <trkpt lat="45.29993" lon="4.77662">
        <ele>337</ele>
        <time>2021-10-28T17:08:17Z</time>
      </trkpt>
      <trkpt lat="45.29988" lon="4.77648">
        <ele>336</ele>
        <time>2021-10-28T17:08:32Z</time>
      </trkpt>
      <trkpt lat="45.29976" lon="4.77629">
        <ele>334</ele>
        <time>2021-10-28T17:08:56Z</time>
      </trkpt>
      <trkpt lat="45.29974" lon="4.77618">
        <ele>333</ele>
        <time>2021-10-28T17:09:06Z</time>
      </trkpt>
      <trkpt lat="45.29975" lon="4.77555">
        <ele>330</ele>
        <time>2021-10-28T17:10:06Z</time>
      </trkpt>
      <trkpt lat="45.29979" lon="4.77517">
        <ele>330</ele>
        <time>2021-10-28T17:10:42Z</time>
      </trkpt>
      <trkpt lat="45.2998" lon="4.77494">
        <ele>330</ele>
        <time>2021-10-28T17:11:03Z</time>
      </trkpt>
      <trkpt lat="45.29978" lon="4.77455">
        <ele>327</ele>
        <time>2021-10-28T17:11:40Z</time>
      </trkpt>
      <trkpt lat="45.29988" lon="4.7744">
        <ele>327</ele>
        <time>2021-10-28T17:11:59Z</time>
      </trkpt>
      <trkpt lat="45.29987" lon="4.77431">
        <ele>326</ele>
        <time>2021-10-28T17:12:08Z</time>
      </trkpt>
      <trkpt lat="45.29964" lon="4.77421">
        <ele>323</ele>
        <time>2021-10-28T17:12:40Z</time>
      </trkpt>
      <trkpt lat="45.29958" lon="4.77414">
        <ele>322</ele>
        <time>2021-10-28T17:12:50Z</time>
      </trkpt>
      <trkpt lat="45.29954" lon="4.77403">
        <ele>321</ele>
        <time>2021-10-28T17:13:02Z</time>
      </trkpt>
      <trkpt lat="45.29959" lon="4.77324">
        <ele>319</ele>
        <time>2021-10-28T17:14:16Z</time>
      </trkpt>
      <trkpt lat="45.2996" lon="4.77253">
        <ele>321</ele>
        <time>2021-10-28T17:15:23Z</time>
      </trkpt>
      <trkpt lat="45.29959" lon="4.7724">
        <ele>321</ele>
        <time>2021-10-28T17:15:35Z</time>
      </trkpt>
      <trkpt lat="45.29955" lon="4.77228">
        <ele>321</ele>
        <time>2021-10-28T17:15:48Z</time>
      </trkpt>
      <trkpt lat="45.29953" lon="4.77214">
        <ele>322</ele>
        <time>2021-10-28T17:16:01Z</time>
      </trkpt>
      <trkpt lat="45.29953" lon="4.77194">
        <ele>323</ele>
        <time>2021-10-28T17:16:20Z</time>
      </trkpt>
      <trkpt lat="45.29999" lon="4.7718">
        <ele>325</ele>
        <time>2021-10-28T17:17:23Z</time>
      </trkpt>
      <trkpt lat="45.29999" lon="4.77183">
        <ele>325</ele>
        <time>2021-10-28T17:17:26Z</time>
      </trkpt>
      <trkpt lat="45.30002" lon="4.77126">
        <ele>328</ele>
        <time>2021-10-28T17:18:19Z</time>
      </trkpt>
      <trkpt lat="45.30113" lon="4.77103">
        <ele>323</ele>
        <time>2021-10-28T17:20:49Z</time>
      </trkpt>
      <trkpt lat="45.3023" lon="4.77069">
        <ele>313</ele>
        <time>2021-10-28T17:23:28Z</time>
      </trkpt>
      <trkpt lat="45.30232" lon="4.77055">
        <ele>313</ele>
        <time>2021-10-28T17:23:42Z</time>
      </trkpt>
      <trkpt lat="45.30231" lon="4.76985">
        <ele>317</ele>
        <time>2021-10-28T17:24:47Z</time>
      </trkpt>
      <trkpt lat="45.3024" lon="4.76956">
        <ele>319</ele>
        <time>2021-10-28T17:25:17Z</time>
      </trkpt>
      <trkpt lat="45.30247" lon="4.76945">
        <ele>320</ele>
        <time>2021-10-28T17:25:31Z</time>
      </trkpt>
      <trkpt lat="45.30253" lon="4.76939">
        <ele>320</ele>
        <time>2021-10-28T17:25:41Z</time>
      </trkpt>
      <trkpt lat="45.3026" lon="4.76939">
        <ele>320</ele>
        <time>2021-10-28T17:25:50Z</time>
      </trkpt>
      <trkpt lat="45.30279" lon="4.76945">
        <ele>318</ele>
        <time>2021-10-28T17:26:16Z</time>
      </trkpt>
      <trkpt lat="45.30304" lon="4.76946">
        <ele>317</ele>
        <time>2021-10-28T17:26:50Z</time>
      </trkpt>
      <trkpt lat="45.30311" lon="4.76949">
        <ele>316</ele>
        <time>2021-10-28T17:26:59Z</time>
      </trkpt>
      <trkpt lat="45.30338" lon="4.76992">
        <ele>308</ele>
        <time>2021-10-28T17:27:53Z</time>
      </trkpt>
      <trkpt lat="45.30346" lon="4.76996">
        <ele>307</ele>
        <time>2021-10-28T17:28:05Z</time>
      </trkpt>
      <trkpt lat="45.30356" lon="4.76996">
        <ele>308</ele>
        <time>2021-10-28T17:28:18Z</time>
      </trkpt>
      <trkpt lat="45.30384" lon="4.76979">
        <ele>312</ele>
        <time>2021-10-28T17:28:59Z</time>
      </trkpt>
      <trkpt lat="45.3039" lon="4.76983">
        <ele>311</ele>
        <time>2021-10-28T17:29:08Z</time>
      </trkpt>
      <trkpt lat="45.304" lon="4.7699">
        <ele>310</ele>
        <time>2021-10-28T17:29:22Z</time>
      </trkpt>
      <trkpt lat="45.30411" lon="4.77006">
        <ele>307</ele>
        <time>2021-10-28T17:29:43Z</time>
      </trkpt>
      <trkpt lat="45.30436" lon="4.77034">
        <ele>302</ele>
        <time>2021-10-28T17:30:26Z</time>
      </trkpt>
      <trkpt lat="45.30456" lon="4.77054">
        <ele>298</ele>
        <time>2021-10-28T17:30:59Z</time>
      </trkpt>
      <trkpt lat="45.30466" lon="4.77067">
        <ele>295</ele>
        <time>2021-10-28T17:31:17Z</time>
      </trkpt>
      <trkpt lat="45.30486" lon="4.77083">
        <ele>291</ele>
        <time>2021-10-28T17:31:47Z</time>
      </trkpt>
      <trkpt lat="45.30527" lon="4.77096">
        <ele>285</ele>
        <time>2021-10-28T17:32:43Z</time>
      </trkpt>
      <trkpt lat="45.30541" lon="4.77092">
        <ele>285</ele>
        <time>2021-10-28T17:33:02Z</time>
      </trkpt>
      <trkpt lat="45.30591" lon="4.77071">
        <ele>286</ele>
        <time>2021-10-28T17:34:12Z</time>
      </trkpt>
      <trkpt lat="45.30649" lon="4.77013">
        <ele>281</ele>
        <time>2021-10-28T17:35:47Z</time>
      </trkpt>
      <trkpt lat="45.30661" lon="4.76995">
        <ele>278</ele>
        <time>2021-10-28T17:36:10Z</time>
      </trkpt>
      <trkpt lat="45.30667" lon="4.76981">
        <ele>277</ele>
        <time>2021-10-28T17:36:25Z</time>
      </trkpt>
      <trkpt lat="45.30666" lon="4.76958">
        <ele>279</ele>
        <time>2021-10-28T17:36:47Z</time>
      </trkpt>
      <trkpt lat="45.3065" lon="4.76907">
        <ele>289</ele>
        <time>2021-10-28T17:37:39Z</time>
      </trkpt>
      <trkpt lat="45.30653" lon="4.7689">
        <ele>290</ele>
        <time>2021-10-28T17:37:56Z</time>
      </trkpt>
      <trkpt lat="45.30665" lon="4.76883">
        <ele>287</ele>
        <time>2021-10-28T17:38:13Z</time>
      </trkpt>
      <trkpt lat="45.30696" lon="4.7689">
        <ele>276</ele>
        <time>2021-10-28T17:38:55Z</time>
      </trkpt>
      <trkpt lat="45.30713" lon="4.76891">
        <ele>271</ele>
        <time>2021-10-28T17:39:18Z</time>
      </trkpt>
      <trkpt lat="45.30734" lon="4.76884">
        <ele>266</ele>
        <time>2021-10-28T17:39:46Z</time>
      </trkpt>
      <trkpt lat="45.30772" lon="4.7685">
        <ele>260</ele>
        <time>2021-10-28T17:40:46Z</time>
      </trkpt>
      <trkpt lat="45.30782" lon="4.76833">
        <ele>259</ele>
        <time>2021-10-28T17:41:07Z</time>
      </trkpt>
      <trkpt lat="45.30786" lon="4.76818">
        <ele>258</ele>
        <time>2021-10-28T17:41:22Z</time>
      </trkpt>
      <trkpt lat="45.3079" lon="4.76778">
        <ele>257</ele>
        <time>2021-10-28T17:42:00Z</time>
      </trkpt>
      <trkpt lat="45.30781" lon="4.76745">
        <ele>261</ele>
        <time>2021-10-28T17:42:33Z</time>
      </trkpt>
      <trkpt lat="45.30764" lon="4.76719">
        <ele>267</ele>
        <time>2021-10-28T17:43:07Z</time>
      </trkpt>
      <trkpt lat="45.30743" lon="4.76695">
        <ele>273</ele>
        <time>2021-10-28T17:43:43Z</time>
      </trkpt>
      <trkpt lat="45.3074" lon="4.76678">
        <ele>273</ele>
        <time>2021-10-28T17:43:59Z</time>
      </trkpt>
      <trkpt lat="45.30735" lon="4.76666">
        <ele>274</ele>
        <time>2021-10-28T17:44:12Z</time>
      </trkpt>
      <trkpt lat="45.30735" lon="4.76657">
        <ele>275</ele>
        <time>2021-10-28T17:44:21Z</time>
      </trkpt>
      <trkpt lat="45.30739" lon="4.7665">
        <ele>275</ele>
        <time>2021-10-28T17:44:29Z</time>
      </trkpt>
      <trkpt lat="45.30804" lon="4.76661">
        <ele>256</ele>
        <time>2021-10-28T17:45:56Z</time>
      </trkpt>
      <trkpt lat="45.30814" lon="4.76656">
        <ele>255</ele>
        <time>2021-10-28T17:46:11Z</time>
      </trkpt>
      <trkpt lat="45.30828" lon="4.76638">
        <ele>255</ele>
        <time>2021-10-28T17:46:36Z</time>
      </trkpt>
      <trkpt lat="45.30836" lon="4.76637">
        <ele>252</ele>
        <time>2021-10-28T17:46:46Z</time>
      </trkpt>
      <trkpt lat="45.30852" lon="4.76651">
        <ele>245</ele>
        <time>2021-10-28T17:47:11Z</time>
      </trkpt>
      <trkpt lat="45.3086" lon="4.76662">
        <ele>241</ele>
        <time>2021-10-28T17:47:26Z</time>
      </trkpt>
      <trkpt lat="45.30868" lon="4.76662">
        <ele>238</ele>
        <time>2021-10-28T17:47:37Z</time>
      </trkpt>
      <trkpt lat="45.30876" lon="4.76652">
        <ele>237</ele>
        <time>2021-10-28T17:47:51Z</time>
      </trkpt>
      <trkpt lat="45.30882" lon="4.76637">
        <ele>238</ele>
        <time>2021-10-28T17:48:07Z</time>
      </trkpt>
      <trkpt lat="45.3089" lon="4.76627">
        <ele>237</ele>
        <time>2021-10-28T17:48:22Z</time>
      </trkpt>
      <trkpt lat="45.309" lon="4.76624">
        <ele>234</ele>
        <time>2021-10-28T17:48:35Z</time>
      </trkpt>
      <trkpt lat="45.30908" lon="4.76612">
        <ele>233</ele>
        <time>2021-10-28T17:48:51Z</time>
      </trkpt>
      <trkpt lat="45.30909" lon="4.76563">
        <ele>236</ele>
        <time>2021-10-28T17:49:37Z</time>
      </trkpt>
      <trkpt lat="45.30902" lon="4.76498">
        <ele>238</ele>
        <time>2021-10-28T17:50:39Z</time>
      </trkpt>
      <trkpt lat="45.30895" lon="4.76478">
        <ele>242</ele>
        <time>2021-10-28T17:50:59Z</time>
      </trkpt>
      <trkpt lat="45.30887" lon="4.76464">
        <ele>246</ele>
        <time>2021-10-28T17:51:16Z</time>
      </trkpt>
      <trkpt lat="45.30885" lon="4.76453">
        <ele>248</ele>
        <time>2021-10-28T17:51:27Z</time>
      </trkpt>
      <trkpt lat="45.30904" lon="4.76422">
        <ele>238</ele>
        <time>2021-10-28T17:52:06Z</time>
      </trkpt>
      <trkpt lat="45.30919" lon="4.76412">
        <ele>230</ele>
        <time>2021-10-28T17:52:28Z</time>
      </trkpt>
      <trkpt lat="45.30923" lon="4.76405">
        <ele>228</ele>
        <time>2021-10-28T17:52:36Z</time>
      </trkpt>
      <trkpt lat="45.30927" lon="4.76392">
        <ele>226</ele>
        <time>2021-10-28T17:52:50Z</time>
      </trkpt>
      <trkpt lat="45.30925" lon="4.76369">
        <ele>227</ele>
        <time>2021-10-28T17:53:11Z</time>
      </trkpt>
      <trkpt lat="45.30913" lon="4.76288">
        <ele>233</ele>
        <time>2021-10-28T17:54:29Z</time>
      </trkpt>
      <trkpt lat="45.30923" lon="4.76306">
        <ele>228</ele>
        <time>2021-10-28T17:54:51Z</time>
      </trkpt>
      <trkpt lat="45.30939" lon="4.76371">
        <ele>220</ele>
        <time>2021-10-28T17:55:55Z</time>
      </trkpt>
      <trkpt lat="45.30941" lon="4.76397">
        <ele>219</ele>
        <time>2021-10-28T17:56:20Z</time>
      </trkpt>
      <trkpt lat="45.30939" lon="4.76416">
        <ele>220</ele>
        <time>2021-10-28T17:56:38Z</time>
      </trkpt>
      <trkpt lat="45.30922" lon="4.76441">
        <ele>228</ele>
        <time>2021-10-28T17:57:10Z</time>
      </trkpt>
      <trkpt lat="45.30917" lon="4.76452">
        <ele>231</ele>
        <time>2021-10-28T17:57:23Z</time>
      </trkpt>
      <trkpt lat="45.30923" lon="4.76472">
        <ele>228</ele>
        <time>2021-10-28T17:57:43Z</time>
      </trkpt>
      <trkpt lat="45.30941" lon="4.76488">
        <ele>218</ele>
        <time>2021-10-28T17:58:11Z</time>
      </trkpt>
      <trkpt lat="45.30947" lon="4.76529">
        <ele>215</ele>
        <time>2021-10-28T17:58:51Z</time>
      </trkpt>
      <trkpt lat="45.30959" lon="4.76588">
        <ele>208</ele>
        <time>2021-10-28T17:59:48Z</time>
      </trkpt>
      <trkpt lat="45.30976" lon="4.76626">
        <ele>197</ele>
        <time>2021-10-28T18:00:31Z</time>
      </trkpt>
      <trkpt lat="45.30997" lon="4.76664">
        <ele>186</ele>
        <time>2021-10-28T18:01:16Z</time>
      </trkpt>
      <trkpt lat="45.31024" lon="4.76737">
        <ele>177</ele>
        <time>2021-10-28T18:02:33Z</time>
      </trkpt>
      <trkpt lat="45.31039" lon="4.76773">
        <ele>172</ele>
        <time>2021-10-28T18:03:13Z</time>
      </trkpt>
      <trkpt lat="45.3116" lon="4.76919">
        <ele>158</ele>
        <time>2021-10-28T18:06:44Z</time>
      </trkpt>
      <trkpt lat="45.31181" lon="4.76942">
        <ele>154</ele>
        <time>2021-10-28T18:07:20Z</time>
      </trkpt>
      <trkpt lat="45.3119" lon="4.76949">
        <ele>152</ele>
        <time>2021-10-28T18:07:33Z</time>
      </trkpt>
      <trkpt lat="45.31201" lon="4.76954">
        <ele>151</ele>
        <time>2021-10-28T18:07:49Z</time>
      </trkpt>
      <trkpt lat="45.31268" lon="4.76969">
        <ele>145</ele>
        <time>2021-10-28T18:09:19Z</time>
      </trkpt>
      <trkpt lat="45.31278" lon="4.76966">
        <ele>145</ele>
        <time>2021-10-28T18:09:33Z</time>
      </trkpt>
      <trkpt lat="45.31301" lon="4.76979">
        <ele>145</ele>
        <time>2021-10-28T18:10:06Z</time>
      </trkpt>
      <trkpt lat="45.31304" lon="4.76988">
        <ele>143</ele>
        <time>2021-10-28T18:10:15Z</time>
      </trkpt>
      <trkpt lat="45.31318" lon="4.77006">
        <ele>142</ele>
        <time>2021-10-28T18:10:41Z</time>
      </trkpt>
      <trkpt lat="45.31333" lon="4.77011">
        <ele>141</ele>
        <time>2021-10-28T18:11:01Z</time>
      </trkpt>
      <trkpt lat="45.31349" lon="4.77007">
        <ele>140</ele>
        <time>2021-10-28T18:11:23Z</time>
      </trkpt>
      <trkpt lat="45.31354" lon="4.77008">
        <ele>140</ele>
        <time>2021-10-28T18:11:30Z</time>
      </trkpt>
      <trkpt lat="45.31361" lon="4.77013">
        <ele>140</ele>
        <time>2021-10-28T18:11:40Z</time>
      </trkpt>
      <trkpt lat="45.31365" lon="4.77022">
        <ele>140</ele>
        <time>2021-10-28T18:11:50Z</time>
      </trkpt>
      <trkpt lat="45.31368" lon="4.77018">
        <ele>140</ele>
        <time>2021-10-28T18:11:55Z</time>
      </trkpt>
      <trkpt lat="45.31374" lon="4.77014">
        <ele>139</ele>
        <time>2021-10-28T18:12:04Z</time>
      </trkpt>
      <trkpt lat="45.31377" lon="4.77012">
        <ele>139</ele>
        <time>2021-10-28T18:12:09Z</time>
      </trkpt>
      <trkpt lat="45.31386" lon="4.76953">
        <ele>145</ele>
        <time>2021-10-28T18:13:05Z</time>
      </trkpt>
      <trkpt lat="45.31407" lon="4.76932">
        <ele>145</ele>
        <time>2021-10-28T18:13:40Z</time>
      </trkpt>
      <trkpt lat="45.31413" lon="4.76924">
        <ele>145</ele>
        <time>2021-10-28T18:13:51Z</time>
      </trkpt>
      <trkpt lat="45.31417" lon="4.76913">
        <ele>146</ele>
        <time>2021-10-28T18:14:02Z</time>
      </trkpt>
      <trkpt lat="45.31419" lon="4.769">
        <ele>151</ele>
        <time>2021-10-28T18:14:15Z</time>
      </trkpt>
      <trkpt lat="45.31422" lon="4.76892">
        <ele>153</ele>
        <time>2021-10-28T18:14:23Z</time>
      </trkpt>
      <trkpt lat="45.31455" lon="4.76873">
        <ele>152</ele>
        <time>2021-10-28T18:15:11Z</time>
      </trkpt>
      <trkpt lat="45.31463" lon="4.76862">
        <ele>152</ele>
        <time>2021-10-28T18:15:26Z</time>
      </trkpt>
      <trkpt lat="45.31482" lon="4.76841">
        <ele>150</ele>
        <time>2021-10-28T18:15:58Z</time>
      </trkpt>
      <trkpt lat="45.31517" lon="4.76807">
        <ele>150</ele>
        <time>2021-10-28T18:16:54Z</time>
      </trkpt>
      <trkpt lat="45.3156" lon="4.76735">
        <ele>153</ele>
        <time>2021-10-28T18:18:23Z</time>
      </trkpt>
      <trkpt lat="45.31575" lon="4.76708">
        <ele>151</ele>
        <time>2021-10-28T18:18:55Z</time>
      </trkpt>
      <trkpt lat="45.31594" lon="4.7665">
        <ele>154</ele>
        <time>2021-10-28T18:19:55Z</time>
      </trkpt>
      <trkpt lat="45.3166" lon="4.76535">
        <ele>152</ele>
        <time>2021-10-28T18:22:15Z</time>
      </trkpt>
      <trkpt lat="45.31669" lon="4.76515">
        <ele>152</ele>
        <time>2021-10-28T18:22:37Z</time>
      </trkpt>
      <trkpt lat="45.31669" lon="4.76493">
        <ele>155</ele>
        <time>2021-10-28T18:22:57Z</time>
      </trkpt>
      <trkpt lat="45.31669" lon="4.76476">
        <ele>158</ele>
        <time>2021-10-28T18:23:13Z</time>
      </trkpt>
      <trkpt lat="45.31675" lon="4.76464">
        <ele>158</ele>
        <time>2021-10-28T18:23:27Z</time>
      </trkpt>
      <trkpt lat="45.3168" lon="4.76434">
        <ele>162</ele>
        <time>2021-10-28T18:23:56Z</time>
      </trkpt>
      <trkpt lat="45.31689" lon="4.76408">
        <ele>163</ele>
        <time>2021-10-28T18:24:23Z</time>
      </trkpt>
      <trkpt lat="45.31698" lon="4.76389">
        <ele>163</ele>
        <time>2021-10-28T18:24:45Z</time>
      </trkpt>
      <trkpt lat="45.31709" lon="4.76375">
        <ele>162</ele>
        <time>2021-10-28T18:25:05Z</time>
      </trkpt>
      <trkpt lat="45.3172" lon="4.76351">
        <ele>161</ele>
        <time>2021-10-28T18:25:31Z</time>
      </trkpt>
      <trkpt lat="45.31736" lon="4.76291">
        <ele>166</ele>
        <time>2021-10-28T18:26:32Z</time>
      </trkpt>
      <trkpt lat="45.31742" lon="4.76262">
        <ele>170</ele>
        <time>2021-10-28T18:27:00Z</time>
      </trkpt>
      <trkpt lat="45.31754" lon="4.76217">
        <ele>173</ele>
        <time>2021-10-28T18:27:45Z</time>
      </trkpt>
      <trkpt lat="45.31757" lon="4.76193">
        <ele>174</ele>
        <time>2021-10-28T18:28:08Z</time>
      </trkpt>
      <trkpt lat="45.31758" lon="4.7616">
        <ele>177</ele>
        <time>2021-10-28T18:28:39Z</time>
      </trkpt>
      <trkpt lat="45.31755" lon="4.76149">
        <ele>178</ele>
        <time>2021-10-28T18:28:50Z</time>
      </trkpt>
      <trkpt lat="45.31735" lon="4.76105">
        <ele>184</ele>
        <time>2021-10-28T18:29:39Z</time>
      </trkpt>
      <trkpt lat="45.31724" lon="4.7609">
        <ele>186</ele>
        <time>2021-10-28T18:30:00Z</time>
      </trkpt>
      <trkpt lat="45.31719" lon="4.76066">
        <ele>189</ele>
        <time>2021-10-28T18:30:23Z</time>
      </trkpt>
      <trkpt lat="45.31712" lon="4.76052">
        <ele>191</ele>
        <time>2021-10-28T18:30:39Z</time>
      </trkpt>
      <trkpt lat="45.31702" lon="4.76024">
        <ele>195</ele>
        <time>2021-10-28T18:31:09Z</time>
      </trkpt>
      <trkpt lat="45.31699" lon="4.76007">
        <ele>197</ele>
        <time>2021-10-28T18:31:25Z</time>
      </trkpt>
      <trkpt lat="45.31704" lon="4.75992">
        <ele>198</ele>
        <time>2021-10-28T18:31:41Z</time>
      </trkpt>
      <trkpt lat="45.3171" lon="4.75983">
        <ele>199</ele>
        <time>2021-10-28T18:31:52Z</time>
      </trkpt>
      <trkpt lat="45.31702" lon="4.75987">
        <ele>199</ele>
        <time>2021-10-28T18:32:04Z</time>
      </trkpt>
      <trkpt lat="45.31699" lon="4.75983">
        <ele>200</ele>
        <time>2021-10-28T18:32:09Z</time>
      </trkpt>
      <trkpt lat="45.31687" lon="4.75988">
        <ele>201</ele>
        <time>2021-10-28T18:32:26Z</time>
      </trkpt>
      <trkpt lat="45.31682" lon="4.75982">
        <ele>202</ele>
        <time>2021-10-28T18:32:35Z</time>
      </trkpt>
      <trkpt lat="45.31668" lon="4.75939">
        <ele>211</ele>
        <time>2021-10-28T18:33:19Z</time>
      </trkpt>
      <trkpt lat="45.31652" lon="4.75899">
        <ele>221</ele>
        <time>2021-10-28T18:34:02Z</time>
      </trkpt>
      <trkpt lat="45.3163" lon="4.75853">
        <ele>231</ele>
        <time>2021-10-28T18:34:54Z</time>
      </trkpt>
      <trkpt lat="45.31622" lon="4.75827">
        <ele>235</ele>
        <time>2021-10-28T18:35:21Z</time>
      </trkpt>
      <trkpt lat="45.31623" lon="4.7582">
        <ele>235</ele>
        <time>2021-10-28T18:35:28Z</time>
      </trkpt>
      <trkpt lat="45.31628" lon="4.75818">
        <ele>233</ele>
        <time>2021-10-28T18:35:35Z</time>
      </trkpt>
      <trkpt lat="45.31642" lon="4.75828">
        <ele>229</ele>
        <time>2021-10-28T18:35:56Z</time>
      </trkpt>
      <trkpt lat="45.31646" lon="4.75825">
        <ele>228</ele>
        <time>2021-10-28T18:36:02Z</time>
      </trkpt>
      <trkpt lat="45.3161" lon="4.75776">
        <ele>239</ele>
        <time>2021-10-28T18:37:08Z</time>
      </trkpt>
      <trkpt lat="45.31597" lon="4.7575">
        <ele>244</ele>
        <time>2021-10-28T18:37:38Z</time>
      </trkpt>
      <trkpt lat="45.31586" lon="4.75734">
        <ele>248</ele>
        <time>2021-10-28T18:37:59Z</time>
      </trkpt>
      <trkpt lat="45.31575" lon="4.75724">
        <ele>252</ele>
        <time>2021-10-28T18:38:17Z</time>
      </trkpt>
      <trkpt lat="45.31555" lon="4.75693">
        <ele>260</ele>
        <time>2021-10-28T18:38:56Z</time>
      </trkpt>
      <trkpt lat="45.3155" lon="4.75674">
        <ele>263</ele>
        <time>2021-10-28T18:39:15Z</time>
      </trkpt>
      <trkpt lat="45.31531" lon="4.75643">
        <ele>273</ele>
        <time>2021-10-28T18:39:54Z</time>
      </trkpt>
      <trkpt lat="45.3152" lon="4.75614">
        <ele>279</ele>
        <time>2021-10-28T18:40:25Z</time>
      </trkpt>
      <trkpt lat="45.31515" lon="4.75589">
        <ele>283</ele>
        <time>2021-10-28T18:40:49Z</time>
      </trkpt>
      <trkpt lat="45.31514" lon="4.75566">
        <ele>284</ele>
        <time>2021-10-28T18:41:11Z</time>
      </trkpt>
      <trkpt lat="45.31516" lon="4.75554">
        <ele>283</ele>
        <time>2021-10-28T18:41:22Z</time>
      </trkpt>
      <trkpt lat="45.31505" lon="4.75552">
        <ele>288</ele>
        <time>2021-10-28T18:41:37Z</time>
      </trkpt>
      <trkpt lat="45.31502" lon="4.75548">
        <ele>290</ele>
        <time>2021-10-28T18:41:42Z</time>
      </trkpt>
      <trkpt lat="45.315" lon="4.75541">
        <ele>291</ele>
        <time>2021-10-28T18:41:50Z</time>
      </trkpt>
      <trkpt lat="45.31503" lon="4.75517">
        <ele>290</ele>
        <time>2021-10-28T18:42:12Z</time>
      </trkpt>
      <trkpt lat="45.31495" lon="4.75505">
        <ele>293</ele>
        <time>2021-10-28T18:42:28Z</time>
      </trkpt>
      <trkpt lat="45.31438" lon="4.75427">
        <ele>307</ele>
        <time>2021-10-28T18:44:13Z</time>
      </trkpt>
      <trkpt lat="45.31423" lon="4.754">
        <ele>310</ele>
        <time>2021-10-28T18:44:46Z</time>
      </trkpt>
      <trkpt lat="45.31388" lon="4.75361">
        <ele>311</ele>
        <time>2021-10-28T18:45:45Z</time>
      </trkpt>
      <trkpt lat="45.31314" lon="4.75291">
        <ele>319</ele>
        <time>2021-10-28T18:47:44Z</time>
      </trkpt>
      <trkpt lat="45.31299" lon="4.75272">
        <ele>320</ele>
        <time>2021-10-28T18:48:11Z</time>
      </trkpt>
      <trkpt lat="45.31283" lon="4.75247">
        <ele>321</ele>
        <time>2021-10-28T18:48:42Z</time>
      </trkpt>
      <trkpt lat="45.31248" lon="4.75154">
        <ele>324</ele>
        <time>2021-10-28T18:50:21Z</time>
      </trkpt>
      <trkpt lat="45.31227" lon="4.75106">
        <ele>324</ele>
        <time>2021-10-28T18:51:14Z</time>
      </trkpt>
      <trkpt lat="45.3121" lon="4.75058">
        <ele>325</ele>
        <time>2021-10-28T18:52:05Z</time>
      </trkpt>
      <trkpt lat="45.31183" lon="4.74955">
        <ele>327</ele>
        <time>2021-10-28T18:53:48Z</time>
      </trkpt>
      <trkpt lat="45.31141" lon="4.74841">
        <ele>329</ele>
        <time>2021-10-28T18:55:49Z</time>
      </trkpt>
      <trkpt lat="45.31137" lon="4.74821">
        <ele>330</ele>
        <time>2021-10-28T18:56:08Z</time>
      </trkpt>
      <trkpt lat="45.31137" lon="4.74794">
        <ele>331</ele>
        <time>2021-10-28T18:56:33Z</time>
      </trkpt>
      <trkpt lat="45.31135" lon="4.74784">
        <ele>331</ele>
        <time>2021-10-28T18:56:43Z</time>
      </trkpt>
      <trkpt lat="45.31134" lon="4.74776">
        <ele>332</ele>
        <time>2021-10-28T18:56:51Z</time>
      </trkpt>
      <trkpt lat="45.31127" lon="4.74755">
        <ele>333</ele>
        <time>2021-10-28T18:57:13Z</time>
      </trkpt>
      <trkpt lat="45.31122" lon="4.74761">
        <ele>333</ele>
        <time>2021-10-28T18:57:21Z</time>
      </trkpt>
      <trkpt lat="45.31113" lon="4.7476">
        <ele>333</ele>
        <time>2021-10-28T18:57:33Z</time>
      </trkpt>
      <trkpt lat="45.31103" lon="4.74736">
        <ele>334</ele>
        <time>2021-10-28T18:58:00Z</time>
      </trkpt>
      <trkpt lat="45.31088" lon="4.74708">
        <ele>335</ele>
        <time>2021-10-28T18:58:33Z</time>
      </trkpt>
      <trkpt lat="45.3106" lon="4.74683">
        <ele>334</ele>
        <time>2021-10-28T18:59:17Z</time>
      </trkpt>
      <trkpt lat="45.31042" lon="4.74655">
        <ele>332</ele>
        <time>2021-10-28T18:59:52Z</time>
      </trkpt>
      <trkpt lat="45.31026" lon="4.74642">
        <ele>331</ele>
        <time>2021-10-28T19:00:17Z</time>
      </trkpt>
      <trkpt lat="45.31011" lon="4.74639">
        <ele>330</ele>
        <time>2021-10-28T19:00:37Z</time>
      </trkpt>
      <trkpt lat="45.30983" lon="4.74649">
        <ele>328</ele>
        <time>2021-10-28T19:01:16Z</time>
      </trkpt>
      <trkpt lat="45.30968" lon="4.74643">
        <ele>327</ele>
        <time>2021-10-28T19:01:37Z</time>
      </trkpt>
      <trkpt lat="45.30951" lon="4.74634">
        <ele>327</ele>
        <time>2021-10-28T19:02:01Z</time>
      </trkpt>
      <trkpt lat="45.30944" lon="4.74632">
        <ele>326</ele>
        <time>2021-10-28T19:02:10Z</time>
      </trkpt>
      <trkpt lat="45.30937" lon="4.74633">
        <ele>326</ele>
        <time>2021-10-28T19:02:20Z</time>
      </trkpt>
      <trkpt lat="45.30922" lon="4.74641">
        <ele>325</ele>
        <time>2021-10-28T19:02:41Z</time>
      </trkpt>
      <trkpt lat="45.30825" lon="4.74709">
        <ele>330</ele>
        <time>2021-10-28T19:05:05Z</time>
      </trkpt>
      <trkpt lat="45.30793" lon="4.74734">
        <ele>332</ele>
        <time>2021-10-28T19:05:54Z</time>
      </trkpt>
      <trkpt lat="45.3074" lon="4.74789">
        <ele>335</ele>
        <time>2021-10-28T19:07:22Z</time>
      </trkpt>
      <trkpt lat="45.30696" lon="4.7484">
        <ele>335</ele>
        <time>2021-10-28T19:08:37Z</time>
      </trkpt>
      <trkpt lat="45.30664" lon="4.74842">
        <ele>336</ele>
        <time>2021-10-28T19:09:20Z</time>
      </trkpt>
      <trkpt lat="45.30662" lon="4.74839">
        <ele>336</ele>
        <time>2021-10-28T19:09:24Z</time>
      </trkpt>
      <trkpt lat="45.30661" lon="4.74832">
        <ele>336</ele>
        <time>2021-10-28T19:09:31Z</time>
      </trkpt>
      <trkpt lat="45.30661" lon="4.7482">
        <ele>337</ele>
        <time>2021-10-28T19:09:42Z</time>
      </trkpt>
      <trkpt lat="45.30666" lon="4.74819">
        <ele>337</ele>
        <time>2021-10-28T19:09:49Z</time>
      </trkpt>
      <trkpt lat="45.30661" lon="4.7482">
        <ele>337</ele>
        <time>2021-10-28T19:09:55Z</time>
      </trkpt>
      <trkpt lat="45.30657" lon="4.74795">
        <ele>337</ele>
        <time>2021-10-28T19:10:20Z</time>
      </trkpt>
      <trkpt lat="45.30654" lon="4.74783">
        <ele>337</ele>
        <time>2021-10-28T19:10:31Z</time>
      </trkpt>
      <trkpt lat="45.30639" lon="4.74759">
        <ele>338</ele>
        <time>2021-10-28T19:11:02Z</time>
      </trkpt>
      <trkpt lat="45.30619" lon="4.74712">
        <ele>340</ele>
        <time>2021-10-28T19:11:53Z</time>
      </trkpt>
      <trkpt lat="45.30608" lon="4.74622">
        <ele>344</ele>
        <time>2021-10-28T19:13:19Z</time>
      </trkpt>
      <trkpt lat="45.30607" lon="4.74605">
        <ele>345</ele>
        <time>2021-10-28T19:13:35Z</time>
      </trkpt>
      <trkpt lat="45.30567" lon="4.74602">
        <ele>343</ele>
        <time>2021-10-28T19:14:28Z</time>
      </trkpt>
      <trkpt lat="45.3055" lon="4.74599">
        <ele>341</ele>
        <time>2021-10-28T19:14:51Z</time>
      </trkpt>
      <trkpt lat="45.30543" lon="4.74594">
        <ele>340</ele>
        <time>2021-10-28T19:15:02Z</time>
      </trkpt>
      <trkpt lat="45.30541" lon="4.74583">
        <ele>340</ele>
        <time>2021-10-28T19:15:12Z</time>
      </trkpt>
      <trkpt lat="45.30531" lon="4.74524">
        <ele>341</ele>
        <time>2021-10-28T19:16:09Z</time>
      </trkpt>
      <trkpt lat="45.3053" lon="4.74512">
        <ele>342</ele>
        <time>2021-10-28T19:16:21Z</time>
      </trkpt>
      <trkpt lat="45.30534" lon="4.74457">
        <ele>343</ele>
        <time>2021-10-28T19:17:13Z</time>
      </trkpt>
      <trkpt lat="45.30519" lon="4.74375">
        <ele>345</ele>
        <time>2021-10-28T19:18:32Z</time>
      </trkpt>
      <trkpt lat="45.30516" lon="4.74366">
        <ele>345</ele>
        <time>2021-10-28T19:18:41Z</time>
      </trkpt>
      <trkpt lat="45.30508" lon="4.74353">
        <ele>345</ele>
        <time>2021-10-28T19:18:58Z</time>
      </trkpt>
      <trkpt lat="45.30468" lon="4.74317">
        <ele>344</ele>
        <time>2021-10-28T19:20:01Z</time>
      </trkpt>
      <trkpt lat="45.30464" lon="4.7431">
        <ele>343</ele>
        <time>2021-10-28T19:20:09Z</time>
      </trkpt>
      <trkpt lat="45.30461" lon="4.74301">
        <ele>343</ele>
        <time>2021-10-28T19:20:19Z</time>
      </trkpt>
      <trkpt lat="45.30455" lon="4.74273">
        <ele>344</ele>
        <time>2021-10-28T19:20:46Z</time>
      </trkpt>
      <trkpt lat="45.30474" lon="4.74253">
        <ele>346</ele>
        <time>2021-10-28T19:21:18Z</time>
      </trkpt>
      <trkpt lat="45.30475" lon="4.74241">
        <ele>347</ele>
        <time>2021-10-28T19:21:29Z</time>
      </trkpt>
      <trkpt lat="45.30471" lon="4.74207">
        <ele>347</ele>
        <time>2021-10-28T19:22:01Z</time>
      </trkpt>
      <trkpt lat="45.30467" lon="4.74195">
        <ele>347</ele>
        <time>2021-10-28T19:22:14Z</time>
      </trkpt>
      <trkpt lat="45.30465" lon="4.74191">
        <ele>347</ele>
        <time>2021-10-28T19:22:18Z</time>
      </trkpt>
      <trkpt lat="45.30451" lon="4.74178">
        <ele>346</ele>
        <time>2021-10-28T19:22:41Z</time>
      </trkpt>
      <trkpt lat="45.30437" lon="4.74143">
        <ele>347</ele>
        <time>2021-10-28T19:23:18Z</time>
      </trkpt>
      <trkpt lat="45.30419" lon="4.7406">
        <ele>352</ele>
        <time>2021-10-28T19:24:40Z</time>
      </trkpt>
      <trkpt lat="45.30411" lon="4.74046">
        <ele>352</ele>
        <time>2021-10-28T19:24:57Z</time>
      </trkpt>
      <trkpt lat="45.30399" lon="4.74035">
        <ele>352</ele>
        <time>2021-10-28T19:25:16Z</time>
      </trkpt>
      <trkpt lat="45.30344" lon="4.74012">
        <ele>351</ele>
        <time>2021-10-28T19:26:33Z</time>
      </trkpt>
      <trkpt lat="45.30335" lon="4.74006">
        <ele>351</ele>
        <time>2021-10-28T19:26:46Z</time>
      </trkpt>
      <trkpt lat="45.30327" lon="4.73996">
        <ele>351</ele>
        <time>2021-10-28T19:27:00Z</time>
      </trkpt>
      <trkpt lat="45.30317" lon="4.73981">
        <ele>353</ele>
        <time>2021-10-28T19:27:19Z</time>
      </trkpt>
      <trkpt lat="45.30309" lon="4.73964">
        <ele>354</ele>
        <time>2021-10-28T19:27:39Z</time>
      </trkpt>
      <trkpt lat="45.30296" lon="4.73903">
        <ele>356</ele>
        <time>2021-10-28T19:28:38Z</time>
      </trkpt>
      <trkpt lat="45.303" lon="4.73902">
        <ele>356</ele>
        <time>2021-10-28T19:28:44Z</time>
      </trkpt>
      <trkpt lat="45.30296" lon="4.73903">
        <ele>356</ele>
        <time>2021-10-28T19:28:49Z</time>
      </trkpt>
      <trkpt lat="45.30293" lon="4.739">
        <ele>356</ele>
        <time>2021-10-28T19:28:54Z</time>
      </trkpt>
      <trkpt lat="45.30285" lon="4.73874">
        <ele>356</ele>
        <time>2021-10-28T19:29:21Z</time>
      </trkpt>
      <trkpt lat="45.30281" lon="4.73867">
        <ele>356</ele>
        <time>2021-10-28T19:29:29Z</time>
      </trkpt>
      <trkpt lat="45.30272" lon="4.73857">
        <ele>356</ele>
        <time>2021-10-28T19:29:44Z</time>
      </trkpt>
      <trkpt lat="45.30257" lon="4.73847">
        <ele>354</ele>
        <time>2021-10-28T19:30:07Z</time>
      </trkpt>
      <trkpt lat="45.30228" lon="4.73846">
        <ele>354</ele>
        <time>2021-10-28T19:30:45Z</time>
      </trkpt>
      <trkpt lat="45.30188" lon="4.73868">
        <ele>356</ele>
        <time>2021-10-28T19:31:43Z</time>
      </trkpt>
      <trkpt lat="45.30062" lon="4.73867">
        <ele>361</ele>
        <time>2021-10-28T19:34:31Z</time>
      </trkpt>
      <trkpt lat="45.30039" lon="4.73872">
        <ele>363</ele>
        <time>2021-10-28T19:35:02Z</time>
      </trkpt>
      <trkpt lat="45.30029" lon="4.73877">
        <ele>364</ele>
        <time>2021-10-28T19:35:16Z</time>
      </trkpt>
      <trkpt lat="45.30025" lon="4.73883">
        <ele>364</ele>
        <time>2021-10-28T19:35:24Z</time>
      </trkpt>
      <trkpt lat="45.30011" lon="4.73938">
        <ele>365</ele>
        <time>2021-10-28T19:36:19Z</time>
      </trkpt>
      <trkpt lat="45.30013" lon="4.73975">
        <ele>363</ele>
        <time>2021-10-28T19:36:53Z</time>
      </trkpt>
      <trkpt lat="45.30021" lon="4.74012">
        <ele>362</ele>
        <time>2021-10-28T19:37:30Z</time>
      </trkpt>
      <trkpt lat="45.30029" lon="4.7404">
        <ele>361</ele>
        <time>2021-10-28T19:37:58Z</time>
      </trkpt>
      <trkpt lat="45.30037" lon="4.74047">
        <ele>360</ele>
        <time>2021-10-28T19:38:11Z</time>
      </trkpt>
      <trkpt lat="45.30057" lon="4.74052">
        <ele>360</ele>
        <time>2021-10-28T19:38:38Z</time>
      </trkpt>
      <trkpt lat="45.30124" lon="4.74062">
        <ele>360</ele>
        <time>2021-10-28T19:40:08Z</time>
      </trkpt>
      <trkpt lat="45.30182" lon="4.74066">
        <ele>358</ele>
        <time>2021-10-28T19:41:25Z</time>
      </trkpt>
      <trkpt lat="45.30209" lon="4.74119">
        <ele>355</ele>
        <time>2021-10-28T19:42:27Z</time>
      </trkpt>
      <trkpt lat="45.3024" lon="4.7415">
        <ele>352</ele>
        <time>2021-10-28T19:43:17Z</time>
      </trkpt>
      <trkpt lat="45.30259" lon="4.74179">
        <ele>350</ele>
        <time>2021-10-28T19:43:54Z</time>
      </trkpt>
      <trkpt lat="45.30268" lon="4.74204">
        <ele>348</ele>
        <time>2021-10-28T19:44:21Z</time>
      </trkpt>
      <trkpt lat="45.30287" lon="4.74297">
        <ele>343</ele>
        <time>2021-10-28T19:45:52Z</time>
      </trkpt>
      <trkpt lat="45.30289" lon="4.7432">
        <ele>342</ele>
        <time>2021-10-28T19:46:13Z</time>
      </trkpt>
      <trkpt lat="45.30283" lon="4.74359">
        <ele>341</ele>
        <time>2021-10-28T19:46:51Z</time>
      </trkpt>
      <trkpt lat="45.30218" lon="4.74394">
        <ele>340</ele>
        <time>2021-10-28T19:48:24Z</time>
      </trkpt>
      <trkpt lat="45.30169" lon="4.74416">
        <ele>338</ele>
        <time>2021-10-28T19:49:32Z</time>
      </trkpt>
      <trkpt lat="45.30143" lon="4.74416">
        <ele>339</ele>
        <time>2021-10-28T19:50:07Z</time>
      </trkpt>
      <trkpt lat="45.30115" lon="4.7442">
        <ele>340</ele>
        <time>2021-10-28T19:50:44Z</time>
      </trkpt>
      <trkpt lat="45.3011" lon="4.74424">
        <ele>341</ele>
        <time>2021-10-28T19:50:52Z</time>
      </trkpt>
      <trkpt lat="45.30107" lon="4.74433">
        <ele>341</ele>
        <time>2021-10-28T19:51:01Z</time>
      </trkpt>
      <trkpt lat="45.30106" lon="4.74447">
        <ele>341</ele>
        <time>2021-10-28T19:51:15Z</time>
      </trkpt>
      <trkpt lat="45.30112" lon="4.74473">
        <ele>340</ele>
        <time>2021-10-28T19:51:40Z</time>
      </trkpt>
      <trkpt lat="45.30119" lon="4.74484">
        <ele>340</ele>
        <time>2021-10-28T19:51:54Z</time>
      </trkpt>
      <trkpt lat="45.30189" lon="4.74536">
        <ele>338</ele>
        <time>2021-10-28T19:53:40Z</time>
      </trkpt>
      <trkpt lat="45.30215" lon="4.74566">
        <ele>338</ele>
        <time>2021-10-28T19:54:24Z</time>
      </trkpt>
      <trkpt lat="45.30227" lon="4.74588">
        <ele>338</ele>
        <time>2021-10-28T19:54:50Z</time>
      </trkpt>
      <trkpt lat="45.30249" lon="4.74728">
        <ele>346</ele>
        <time>2021-10-28T19:57:05Z</time>
      </trkpt>
      <trkpt lat="45.30249" lon="4.74739">
        <ele>346</ele>
        <time>2021-10-28T19:57:15Z</time>
      </trkpt>
      <trkpt lat="45.30246" lon="4.74753">
        <ele>347</ele>
        <time>2021-10-28T19:57:29Z</time>
      </trkpt>
      <trkpt lat="45.30238" lon="4.74768">
        <ele>348</ele>
        <time>2021-10-28T19:57:47Z</time>
      </trkpt>
      <trkpt lat="45.30225" lon="4.74779">
        <ele>349</ele>
        <time>2021-10-28T19:58:07Z</time>
      </trkpt>
      <trkpt lat="45.30206" lon="4.74789">
        <ele>351</ele>
        <time>2021-10-28T19:58:34Z</time>
      </trkpt>
      <trkpt lat="45.3016" lon="4.74802">
        <ele>355</ele>
        <time>2021-10-28T19:59:37Z</time>
      </trkpt>
      <trkpt lat="45.30082" lon="4.74831">
        <ele>355</ele>
        <time>2021-10-28T20:01:24Z</time>
      </trkpt>
      <trkpt lat="45.30062" lon="4.74833">
        <ele>356</ele>
        <time>2021-10-28T20:01:51Z</time>
      </trkpt>
      <trkpt lat="45.30046" lon="4.74839">
        <ele>357</ele>
        <time>2021-10-28T20:02:13Z</time>
      </trkpt>
      <trkpt lat="45.30015" lon="4.74859">
        <ele>358</ele>
        <time>2021-10-28T20:02:58Z</time>
      </trkpt>
      <trkpt lat="45.30006" lon="4.74867">
        <ele>358</ele>
        <time>2021-10-28T20:03:13Z</time>
      </trkpt>
      <trkpt lat="45.30002" lon="4.74878">
        <ele>358</ele>
        <time>2021-10-28T20:03:24Z</time>
      </trkpt>
      <trkpt lat="45.30002" lon="4.74917">
        <ele>356</ele>
        <time>2021-10-28T20:04:01Z</time>
      </trkpt>
      <trkpt lat="45.30011" lon="4.74943">
        <ele>356</ele>
        <time>2021-10-28T20:04:28Z</time>
      </trkpt>
      <trkpt lat="45.30023" lon="4.74968">
        <ele>355</ele>
        <time>2021-10-28T20:04:56Z</time>
      </trkpt>
      <trkpt lat="45.30028" lon="4.74988">
        <ele>354</ele>
        <time>2021-10-28T20:05:16Z</time>
      </trkpt>
      <trkpt lat="45.30031" lon="4.75032">
        <ele>354</ele>
        <time>2021-10-28T20:05:58Z</time>
      </trkpt>
      <trkpt lat="45.3003" lon="4.75011">
        <ele>354</ele>
        <time>2021-10-28T20:06:18Z</time>
      </trkpt>
      <trkpt lat="45.30021" lon="4.75037">
        <ele>355</ele>
        <time>2021-10-28T20:06:45Z</time>
      </trkpt>
      <trkpt lat="45.29977" lon="4.75093">
        <ele>358</ele>
        <time>2021-10-28T20:08:04Z</time>
      </trkpt>
      <trkpt lat="45.29955" lon="4.75115">
        <ele>357</ele>
        <time>2021-10-28T20:08:40Z</time>
      </trkpt>
      <trkpt lat="45.29952" lon="4.7512">
        <ele>357</ele>
        <time>2021-10-28T20:08:46Z</time>
      </trkpt>
      <trkpt lat="45.29951" lon="4.75127">
        <ele>357</ele>
        <time>2021-10-28T20:08:52Z</time>
      </trkpt>
      <trkpt lat="45.29959" lon="4.75155">
        <ele>355</ele>
        <time>2021-10-28T20:09:21Z</time>
      </trkpt>
      <trkpt lat="45.29964" lon="4.75231">
        <ele>353</ele>
        <time>2021-10-28T20:10:32Z</time>
      </trkpt>
      <trkpt lat="45.29964" lon="4.75269">
        <ele>352</ele>
        <time>2021-10-28T20:11:08Z</time>
      </trkpt>
      <trkpt lat="45.2998" lon="4.75307">
        <ele>352</ele>
        <time>2021-10-28T20:11:50Z</time>
      </trkpt>
      <trkpt lat="45.29999" lon="4.75364">
        <ele>352</ele>
        <time>2021-10-28T20:12:49Z</time>
      </trkpt>
      <trkpt lat="45.30006" lon="4.75393">
        <ele>351</ele>
        <time>2021-10-28T20:13:18Z</time>
      </trkpt>
      <trkpt lat="45.30015" lon="4.75467">
        <ele>351</ele>
        <time>2021-10-28T20:14:28Z</time>
      </trkpt>
      <trkpt lat="45.30019" lon="4.75507">
        <ele>352</ele>
        <time>2021-10-28T20:15:06Z</time>
      </trkpt>
      <trkpt lat="45.30019" lon="4.75537">
        <ele>351</ele>
        <time>2021-10-28T20:15:34Z</time>
      </trkpt>
      <trkpt lat="45.29989" lon="4.75548">
        <ele>351</ele>
        <time>2021-10-28T20:16:16Z</time>
      </trkpt>
      <trkpt lat="45.29897" lon="4.75573">
        <ele>348</ele>
        <time>2021-10-28T20:18:21Z</time>
      </trkpt>
      <trkpt lat="45.29872" lon="4.75582">
        <ele>346</ele>
        <time>2021-10-28T20:18:55Z</time>
      </trkpt>
      <trkpt lat="45.29842" lon="4.75599">
        <ele>345</ele>
        <time>2021-10-28T20:19:38Z</time>
      </trkpt>
      <trkpt lat="45.29821" lon="4.75614">
        <ele>342</ele>
        <time>2021-10-28T20:20:09Z</time>
      </trkpt>
      <trkpt lat="45.29809" lon="4.75616">
        <ele>341</ele>
        <time>2021-10-28T20:20:26Z</time>
      </trkpt>
      <trkpt lat="45.29778" lon="4.75609">
        <ele>339</ele>
        <time>2021-10-28T20:21:07Z</time>
      </trkpt>
      <trkpt lat="45.29772" lon="4.7561">
        <ele>338</ele>
        <time>2021-10-28T20:21:15Z</time>
      </trkpt>
      <trkpt lat="45.29743" lon="4.75612">
        <ele>336</ele>
        <time>2021-10-28T20:21:54Z</time>
      </trkpt>
      <trkpt lat="45.29714" lon="4.75621">
        <ele>332</ele>
        <time>2021-10-28T20:22:34Z</time>
      </trkpt>
      <trkpt lat="45.29704" lon="4.75621">
        <ele>331</ele>
        <time>2021-10-28T20:22:47Z</time>
      </trkpt>
      <trkpt lat="45.29676" lon="4.7561">
        <ele>329</ele>
        <time>2021-10-28T20:23:26Z</time>
      </trkpt>
      <trkpt lat="45.29666" lon="4.75602">
        <ele>328</ele>
        <time>2021-10-28T20:23:41Z</time>
      </trkpt>
      <trkpt lat="45.2966" lon="4.7559">
        <ele>329</ele>
        <time>2021-10-28T20:23:55Z</time>
      </trkpt>
      <trkpt lat="45.29662" lon="4.75547">
        <ele>328</ele>
        <time>2021-10-28T20:24:36Z</time>
      </trkpt>
      <trkpt lat="45.29655" lon="4.75512">
        <ele>328</ele>
        <time>2021-10-28T20:25:10Z</time>
      </trkpt>
      <trkpt lat="45.29648" lon="4.75498">
        <ele>329</ele>
        <time>2021-10-28T20:25:26Z</time>
      </trkpt>
      <trkpt lat="45.29632" lon="4.75492">
        <ele>330</ele>
        <time>2021-10-28T20:25:48Z</time>
      </trkpt>
      <trkpt lat="45.29606" lon="4.75484">
        <ele>332</ele>
        <time>2021-10-28T20:26:23Z</time>
      </trkpt>
      <trkpt lat="45.29599" lon="4.75492">
        <ele>332</ele>
        <time>2021-10-28T20:26:35Z</time>
      </trkpt>
      <trkpt lat="45.29599" lon="4.75505">
        <ele>333</ele>
        <time>2021-10-28T20:26:48Z</time>
      </trkpt>
      <trkpt lat="45.29608" lon="4.7553">
        <ele>333</ele>
        <time>2021-10-28T20:27:14Z</time>
      </trkpt>
      <trkpt lat="45.29615" lon="4.75542">
        <ele>333</ele>
        <time>2021-10-28T20:27:29Z</time>
      </trkpt>
      <trkpt lat="45.29615" lon="4.75555">
        <ele>333</ele>
        <time>2021-10-28T20:27:41Z</time>
      </trkpt>
      <trkpt lat="45.29604" lon="4.75595">
        <ele>336</ele>
        <time>2021-10-28T20:28:21Z</time>
      </trkpt>
      <trkpt lat="45.29607" lon="4.75621">
        <ele>336</ele>
        <time>2021-10-28T20:28:46Z</time>
      </trkpt>
      <trkpt lat="45.29622" lon="4.75667">
        <ele>335</ele>
        <time>2021-10-28T20:29:33Z</time>
      </trkpt>
      <trkpt lat="45.29637" lon="4.75696">
        <ele>334</ele>
        <time>2021-10-28T20:30:07Z</time>
      </trkpt>
      <trkpt lat="45.29659" lon="4.75721">
        <ele>332</ele>
        <time>2021-10-28T20:30:45Z</time>
      </trkpt>
      <trkpt lat="45.2968" lon="4.7575">
        <ele>332</ele>
        <time>2021-10-28T20:31:24Z</time>
      </trkpt>
      <trkpt lat="45.29682" lon="4.75785">
        <ele>334</ele>
        <time>2021-10-28T20:31:57Z</time>
      </trkpt>
      <trkpt lat="45.29711" lon="4.7582">
        <ele>332</ele>
        <time>2021-10-28T20:32:48Z</time>
      </trkpt>
      <trkpt lat="45.29718" lon="4.75897">
        <ele>332</ele>
        <time>2021-10-28T20:34:00Z</time>
      </trkpt>
      <trkpt lat="45.29715" lon="4.75912">
        <ele>333</ele>
        <time>2021-10-28T20:34:15Z</time>
      </trkpt>
      <trkpt lat="45.29705" lon="4.75921">
        <ele>334</ele>
        <time>2021-10-28T20:34:31Z</time>
      </trkpt>
      <trkpt lat="45.29675" lon="4.75931">
        <ele>338</ele>
        <time>2021-10-28T20:35:12Z</time>
      </trkpt>
      <trkpt lat="45.29614" lon="4.75963">
        <ele>342</ele>
        <time>2021-10-28T20:36:39Z</time>
      </trkpt>
      <trkpt lat="45.29578" lon="4.75978">
        <ele>344</ele>
        <time>2021-10-28T20:37:29Z</time>
      </trkpt>
      <trkpt lat="45.2955" lon="4.75999">
        <ele>343</ele>
        <time>2021-10-28T20:38:11Z</time>
      </trkpt>
      <trkpt lat="45.2954" lon="4.76">
        <ele>342</ele>
        <time>2021-10-28T20:38:24Z</time>
      </trkpt>
      <trkpt lat="45.29533" lon="4.75998">
        <ele>342</ele>
        <time>2021-10-28T20:38:34Z</time>
      </trkpt>
      <trkpt lat="45.29501" lon="4.75982">
        <ele>342</ele>
        <time>2021-10-28T20:39:19Z</time>
      </trkpt>
      <trkpt lat="45.29473" lon="4.75965">
        <ele>340</ele>
        <time>2021-10-28T20:40:00Z</time>
      </trkpt>
      <trkpt lat="45.29467" lon="4.75958">
        <ele>340</ele>
        <time>2021-10-28T20:40:10Z</time>
      </trkpt>
      <trkpt lat="45.29464" lon="4.7595">
        <ele>341</ele>
        <time>2021-10-28T20:40:19Z</time>
      </trkpt>
      <trkpt lat="45.29424" lon="4.75954">
        <ele>338</ele>
        <time>2021-10-28T20:41:12Z</time>
      </trkpt>
      <trkpt lat="45.29377" lon="4.75962">
        <ele>333</ele>
        <time>2021-10-28T20:42:15Z</time>
      </trkpt>
      <trkpt lat="45.29331" lon="4.7598">
        <ele>327</ele>
        <time>2021-10-28T20:43:19Z</time>
      </trkpt>
      <trkpt lat="45.29295" lon="4.75974">
        <ele>326</ele>
        <time>2021-10-28T20:44:08Z</time>
      </trkpt>
      <trkpt lat="45.29261" lon="4.75953">
        <ele>325</ele>
        <time>2021-10-28T20:44:57Z</time>
      </trkpt>
      <trkpt lat="45.29223" lon="4.75924">
        <ele>326</ele>
        <time>2021-10-28T20:45:55Z</time>
      </trkpt>
      <trkpt lat="45.2919" lon="4.75905">
        <ele>327</ele>
        <time>2021-10-28T20:46:42Z</time>
      </trkpt>
      <trkpt lat="45.29149" lon="4.75897">
        <ele>328</ele>
        <time>2021-10-28T20:47:37Z</time>
      </trkpt>
      <trkpt lat="45.29073" lon="4.75903">
        <ele>331</ele>
        <time>2021-10-28T20:49:19Z</time>
      </trkpt>
      <trkpt lat="45.28983" lon="4.75895">
        <ele>334</ele>
        <time>2021-10-28T20:51:19Z</time>
      </trkpt>
      <trkpt lat="45.28957" lon="4.75917">
        <ele>338</ele>
        <time>2021-10-28T20:52:00Z</time>
      </trkpt>
      <trkpt lat="45.28936" lon="4.75975">
        <ele>344</ele>
        <time>2021-10-28T20:53:01Z</time>
      </trkpt>
      <trkpt lat="45.28904" lon="4.75995">
        <ele>347</ele>
        <time>2021-10-28T20:53:47Z</time>
      </trkpt>
      <trkpt lat="45.28869" lon="4.76">
        <ele>348</ele>
        <time>2021-10-28T20:54:34Z</time>
      </trkpt>
      <trkpt lat="45.28833" lon="4.75997">
        <ele>349</ele>
        <time>2021-10-28T20:55:23Z</time>
      </trkpt>
      <trkpt lat="45.28802" lon="4.76005">
        <ele>350</ele>
        <time>2021-10-28T20:56:05Z</time>
      </trkpt>
      <trkpt lat="45.2876" lon="4.7607">
        <ele>353</ele>
        <time>2021-10-28T20:57:27Z</time>
      </trkpt>
      <trkpt lat="45.28722" lon="4.76064">
        <ele>355</ele>
        <time>2021-10-28T20:58:18Z</time>
      </trkpt>
      <trkpt lat="45.28716" lon="4.76127">
        <ele>356</ele>
        <time>2021-10-28T20:59:18Z</time>
      </trkpt>
      <trkpt lat="45.28698" lon="4.76137">
        <ele>357</ele>
        <time>2021-10-28T20:59:44Z</time>
      </trkpt>
      <trkpt lat="45.28636" lon="4.76117">
        <ele>361</ele>
        <time>2021-10-28T21:01:09Z</time>
      </trkpt>
      <trkpt lat="45.2855" lon="4.76124">
        <ele>365</ele>
        <time>2021-10-28T21:03:04Z</time>
      </trkpt>
      <trkpt lat="45.28521" lon="4.7613">
        <ele>365</ele>
        <time>2021-10-28T21:03:43Z</time>
      </trkpt>
      <trkpt lat="45.28495" lon="4.76128">
        <ele>366</ele>
        <time>2021-10-28T21:04:18Z</time>
      </trkpt>
      <trkpt lat="45.2846" lon="4.76119">
        <ele>368</ele>
        <time>2021-10-28T21:05:05Z</time>
      </trkpt>
      <trkpt lat="45.28414" lon="4.76144">
        <ele>370</ele>
        <time>2021-10-28T21:06:11Z</time>
      </trkpt>
      <trkpt lat="45.2838" lon="4.76169">
        <ele>372</ele>
        <time>2021-10-28T21:07:02Z</time>
      </trkpt>
      <trkpt lat="45.28377" lon="4.76175">
        <ele>372</ele>
        <time>2021-10-28T21:07:09Z</time>
      </trkpt>
      <trkpt lat="45.28377" lon="4.76201">
        <ele>373</ele>
        <time>2021-10-28T21:07:33Z</time>
      </trkpt>
      <trkpt lat="45.28357" lon="4.76194">
        <ele>375</ele>
        <time>2021-10-28T21:08:01Z</time>
      </trkpt>
      <trkpt lat="45.28341" lon="4.76272">
        <ele>378</ele>
        <time>2021-10-28T21:09:17Z</time>
      </trkpt>
      <trkpt lat="45.28331" lon="4.76293">
        <ele>379</ele>
        <time>2021-10-28T21:09:41Z</time>
      </trkpt>
      <trkpt lat="45.28326" lon="4.76317">
        <ele>379</ele>
        <time>2021-10-28T21:10:04Z</time>
      </trkpt>
      <trkpt lat="45.28336" lon="4.76335">
        <ele>379</ele>
        <time>2021-10-28T21:10:26Z</time>
      </trkpt>
      <trkpt lat="45.28352" lon="4.76381">
        <ele>379</ele>
        <time>2021-10-28T21:11:14Z</time>
      </trkpt>
      <trkpt lat="45.28365" lon="4.76442">
        <ele>380</ele>
        <time>2021-10-28T21:12:14Z</time>
      </trkpt>
      <trkpt lat="45.28374" lon="4.76496">
        <ele>380</ele>
        <time>2021-10-28T21:13:06Z</time>
      </trkpt>
      <trkpt lat="45.28375" lon="4.76526">
        <ele>381</ele>
        <time>2021-10-28T21:13:34Z</time>
      </trkpt>
      <trkpt lat="45.28363" lon="4.76651">
        <ele>383</ele>
        <time>2021-10-28T21:15:33Z</time>
      </trkpt>
      <trkpt lat="45.28364" lon="4.76864">
        <ele>378</ele>
        <time>2021-10-28T21:18:53Z</time>
      </trkpt>
      <trkpt lat="45.28395" lon="4.76877">
        <ele>378</ele>
        <time>2021-10-28T21:19:36Z</time>
      </trkpt>
      <trkpt lat="45.28417" lon="4.76902">
        <ele>377</ele>
        <time>2021-10-28T21:20:13Z</time>
      </trkpt>
      <trkpt lat="45.28454" lon="4.76948">
        <ele>375</ele>
        <time>2021-10-28T21:21:19Z</time>
      </trkpt>
      <trkpt lat="45.28492" lon="4.77004">
        <ele>373</ele>
        <time>2021-10-28T21:22:32Z</time>
      </trkpt>
      <trkpt lat="45.28516" lon="4.77046">
        <ele>371</ele>
        <time>2021-10-28T21:23:23Z</time>
      </trkpt>
      <trkpt lat="45.28528" lon="4.77088">
        <ele>370</ele>
        <time>2021-10-28T21:24:05Z</time>
      </trkpt>
      <trkpt lat="45.28559" lon="4.77101">
        <ele>371</ele>
        <time>2021-10-28T21:24:48Z</time>
      </trkpt>
      <trkpt lat="45.28611" lon="4.7714">
        <ele>371</ele>
        <time>2021-10-28T21:26:07Z</time>
      </trkpt>
      <trkpt lat="45.28685" lon="4.77169">
        <ele>371</ele>
        <time>2021-10-28T21:27:49Z</time>
      </trkpt>
      <trkpt lat="45.28802" lon="4.77225">
        <ele>366</ele>
        <time>2021-10-28T21:30:34Z</time>
      </trkpt>
      <trkpt lat="45.28887" lon="4.77311">
        <ele>357</ele>
        <time>2021-10-28T21:32:53Z</time>
      </trkpt>
      <trkpt lat="45.28901" lon="4.77309">
        <ele>355</ele>
        <time>2021-10-28T21:33:12Z</time>
      </trkpt>
      <trkpt lat="45.28914" lon="4.77312">
        <ele>354</ele>
        <time>2021-10-28T21:33:30Z</time>
      </trkpt>
      <trkpt lat="45.28947" lon="4.77312">
        <ele>351</ele>
        <time>2021-10-28T21:34:14Z</time>
      </trkpt>
      <trkpt lat="45.29046" lon="4.77321">
        <ele>343</ele>
        <time>2021-10-28T21:36:26Z</time>
      </trkpt>
      <trkpt lat="45.29067" lon="4.77315">
        <ele>341</ele>
        <time>2021-10-28T21:36:55Z</time>
      </trkpt>
      <trkpt lat="45.29104" lon="4.77329">
        <ele>337</ele>
        <time>2021-10-28T21:37:46Z</time>
      </trkpt>
      <trkpt lat="45.29124" lon="4.77327">
        <ele>334</ele>
        <time>2021-10-28T21:38:12Z</time>
      </trkpt>
      <trkpt lat="45.29151" lon="4.77312">
        <ele>332</ele>
        <time>2021-10-28T21:38:51Z</time>
      </trkpt>
      <trkpt lat="45.29184" lon="4.77342">
        <ele>330</ele>
        <time>2021-10-28T21:39:43Z</time>
      </trkpt>
      <trkpt lat="45.29229" lon="4.77349">
        <ele>328</ele>
        <time>2021-10-28T21:40:44Z</time>
      </trkpt>
      <trkpt lat="45.29248" lon="4.77355">
        <ele>327</ele>
        <time>2021-10-28T21:41:10Z</time>
      </trkpt>
      <trkpt lat="45.29274" lon="4.77374">
        <ele>328</ele>
        <time>2021-10-28T21:41:49Z</time>
      </trkpt>
      <trkpt lat="45.29307" lon="4.77422">
        <ele>326</ele>
        <time>2021-10-28T21:42:52Z</time>
      </trkpt>
      <trkpt lat="45.29325" lon="4.77432">
        <ele>324</ele>
        <time>2021-10-28T21:43:18Z</time>
      </trkpt>
      <trkpt lat="45.29357" lon="4.77457">
        <ele>325</ele>
        <time>2021-10-28T21:44:06Z</time>
      </trkpt>
      <trkpt lat="45.29365" lon="4.77478">
        <ele>325</ele>
        <time>2021-10-28T21:44:29Z</time>
      </trkpt>
      <trkpt lat="45.29391" lon="4.77495">
        <ele>322</ele>
        <time>2021-10-28T21:45:07Z</time>
      </trkpt>
      <trkpt lat="45.29421" lon="4.77526">
        <ele>316</ele>
        <time>2021-10-28T21:45:56Z</time>
      </trkpt>
      <trkpt lat="45.2946" lon="4.77569">
        <ele>307</ele>
        <time>2021-10-28T21:47:02Z</time>
      </trkpt>
      <trkpt lat="45.2949" lon="4.77612">
        <ele>292</ele>
        <time>2021-10-28T21:47:59Z</time>
      </trkpt>
      <trkpt lat="45.29508" lon="4.77646">
        <ele>281</ele>
        <time>2021-10-28T21:48:39Z</time>
      </trkpt>
      <trkpt lat="45.29516" lon="4.77669">
        <ele>273</ele>
        <time>2021-10-28T21:49:03Z</time>
      </trkpt>
      <trkpt lat="45.29519" lon="4.77691">
        <ele>269</ele>
        <time>2021-10-28T21:49:24Z</time>
      </trkpt>
      <trkpt lat="45.29505" lon="4.77703">
        <ele>272</ele>
        <time>2021-10-28T21:49:46Z</time>
      </trkpt>
      <trkpt lat="45.29466" lon="4.77701">
        <ele>285</ele>
        <time>2021-10-28T21:50:38Z</time>
      </trkpt>
      <trkpt lat="45.29451" lon="4.77704">
        <ele>289</ele>
        <time>2021-10-28T21:50:58Z</time>
      </trkpt>
      <trkpt lat="45.29441" lon="4.77711">
        <ele>292</ele>
        <time>2021-10-28T21:51:13Z</time>
      </trkpt>
      <trkpt lat="45.29437" lon="4.77723">
        <ele>292</ele>
        <time>2021-10-28T21:51:26Z</time>
      </trkpt>
      <trkpt lat="45.29441" lon="4.77734">
        <ele>290</ele>
        <time>2021-10-28T21:51:37Z</time>
      </trkpt>
      <trkpt lat="45.29509" lon="4.77796">
        <ele>267</ele>
        <time>2021-10-28T21:53:25Z</time>
      </trkpt>
      <trkpt lat="45.29534" lon="4.77817">
        <ele>258</ele>
        <time>2021-10-28T21:54:04Z</time>
      </trkpt>
      <trkpt lat="45.29556" lon="4.7783">
        <ele>250</ele>
        <time>2021-10-28T21:54:36Z</time>
      </trkpt>
      <trkpt lat="45.29568" lon="4.77844">
        <ele>245</ele>
        <time>2021-10-28T21:54:56Z</time>
      </trkpt>
      <trkpt lat="45.29573" lon="4.77853">
        <ele>243</ele>
        <time>2021-10-28T21:55:07Z</time>
      </trkpt>
      <trkpt lat="45.29568" lon="4.7787">
        <ele>246</ele>
        <time>2021-10-28T21:55:24Z</time>
      </trkpt>
      <trkpt lat="45.29574" lon="4.779">
        <ele>244</ele>
        <time>2021-10-28T21:55:54Z</time>
      </trkpt>
      <trkpt lat="45.29583" lon="4.77925">
        <ele>241</ele>
        <time>2021-10-28T21:56:20Z</time>
      </trkpt>
      <trkpt lat="45.29615" lon="4.77976">
        <ele>232</ele>
        <time>2021-10-28T21:57:24Z</time>
      </trkpt>
      <trkpt lat="45.2963" lon="4.78004">
        <ele>228</ele>
        <time>2021-10-28T21:57:57Z</time>
      </trkpt>
      <trkpt lat="45.2967" lon="4.78062">
        <ele>215</ele>
        <time>2021-10-28T21:59:14Z</time>
      </trkpt>
      <trkpt lat="45.29697" lon="4.78106">
        <ele>209</ele>
        <time>2021-10-28T22:00:08Z</time>
      </trkpt>
      <trkpt lat="45.29699" lon="4.78121">
        <ele>209</ele>
        <time>2021-10-28T22:00:23Z</time>
      </trkpt>
      <trkpt lat="45.29714" lon="4.78169">
        <ele>202</ele>
        <time>2021-10-28T22:01:12Z</time>
      </trkpt>
      <trkpt lat="45.29723" lon="4.78208">
        <ele>200</ele>
        <time>2021-10-28T22:01:51Z</time>
      </trkpt>
      <trkpt lat="45.29739" lon="4.78239">
        <ele>191</ele>
        <time>2021-10-28T22:02:27Z</time>
      </trkpt>
      <trkpt lat="45.29765" lon="4.78285">
        <ele>187</ele>
        <time>2021-10-28T22:03:22Z</time>
      </trkpt>
      <trkpt lat="45.29791" lon="4.78343">
        <ele>182</ele>
        <time>2021-10-28T22:04:27Z</time>
      </trkpt>
      <trkpt lat="45.29815" lon="4.78413">
        <ele>178</ele>
        <time>2021-10-28T22:05:40Z</time>
      </trkpt>
      <trkpt lat="45.2984" lon="4.78459">
        <ele>176</ele>
        <time>2021-10-28T22:06:34Z</time>
      </trkpt>
      <trkpt lat="45.29868" lon="4.7854">
        <ele>177</ele>
        <time>2021-10-28T22:07:59Z</time>
      </trkpt>
      <trkpt lat="45.29896" lon="4.78588">
        <ele>165</ele>
        <time>2021-10-28T22:08:57Z</time>
      </trkpt>
      <trkpt lat="45.2993" lon="4.78634">
        <ele>156</ele>
        <time>2021-10-28T22:10:00Z</time>
      </trkpt>
      <trkpt lat="45.29942" lon="4.7864">
        <ele>154</ele>
        <time>2021-10-28T22:10:17Z</time>
      </trkpt>
      <trkpt lat="45.29971" lon="4.78665">
        <ele>149</ele>
        <time>2021-10-28T22:11:02Z</time>
      </trkpt>
      <trkpt lat="45.30007" lon="4.78685">
        <ele>143</ele>
        <time>2021-10-28T22:11:54Z</time>
      </trkpt>
      <trkpt lat="45.30028" lon="4.7869">
        <ele>142</ele>
        <time>2021-10-28T22:12:22Z</time>
      </trkpt>
      <trkpt lat="45.30041" lon="4.78689">
        <ele>142</ele>
        <time>2021-10-28T22:12:40Z</time>
      </trkpt>
      <trkpt lat="45.30098" lon="4.78663">
        <ele>142</ele>
        <time>2021-10-28T22:14:00Z</time>
      </trkpt>
      <trkpt lat="45.30112" lon="4.78665">
        <ele>141</ele>
        <time>2021-10-28T22:14:18Z</time>
      </trkpt>
      <trkpt lat="45.30126" lon="4.78684">
        <ele>140</ele>
        <time>2021-10-28T22:14:44Z</time>
      </trkpt>
      <trkpt lat="45.30144" lon="4.78721">
        <ele>138</ele>
        <time>2021-10-28T22:15:26Z</time>
      </trkpt>
      <trkpt lat="45.30156" lon="4.78765">
        <ele>137</ele>
        <time>2021-10-28T22:16:11Z</time>
      </trkpt>
      <trkpt lat="45.30173" lon="4.78795">
        <ele>137</ele>
        <time>2021-10-28T22:16:47Z</time>
      </trkpt>
      <trkpt lat="45.30187" lon="4.7882">
        <ele>137</ele>
        <time>2021-10-28T22:17:17Z</time>
      </trkpt>
      <trkpt lat="45.30184" lon="4.78825">
        <ele>137</ele>
        <time>2021-10-28T22:17:23Z</time>
      </trkpt>
    </trkseg>
  </trk>
</gpx>